sensor_id;sensor_type;location;lat;lon;timestamp;pressure;altitude;pressure_sealevel;temperature;humidity
64023;BME280;50264;52.088;5.296;2023-05-11T00:01:07;101405.0;;;13.22;100.0
64023;BME280;50264;52.088;5.296;2023-05-11T00:02:44;101403.0;;;13.19;100.0
64023;BME280;50264;52.088;5.296;2023-05-11T00:05:57;101402.0;;;13.25;100.0
64023;BME280;50264;52.088;5.296;2023-05-11T00:07:33;101400.0;;;13.19;100.0
64023;BME280;50264;52.088;5.296;2023-05-11T00:09:09;101398.0;;;13.17;100.0
64023;BME280;50264;52.088;5.296;2023-05-11T00:10:46;101395.0;;;13.19;100.0
64023;BME280;50264;52.088;5.296;2023-05-11T00:13:58;101395.0;;;13.18;100.0
64023;BME280;50264;52.088;5.296;2023-05-11T00:15:34;101396.0;;;13.18;100.0
64023;BME280;50264;52.088;5.296;2023-05-11T00:17:11;101389.0;;;13.22;100.0
64023;BME280;50264;52.088;5.296;2023-05-11T00:20:23;101391.0;;;13.2;100.0
64023;BME280;50264;52.088;5.296;2023-05-11T00:21:59;101389.0;;;13.14;100.0
64023;BME280;50264;52.088;5.296;2023-05-11T00:23:35;101387.0;;;13.24;100.0
64023;BME280;50264;52.088;5.296;2023-05-11T00:26:47;101389.0;;;13.22;100.0
64023;BME280;50264;52.088;5.296;2023-05-11T00:28:24;101390.0;;;13.21;100.0
64023;BME280;50264;52.088;5.296;2023-05-11T00:30:00;101392.0;;;13.12;100.0
64023;BME280;50264;52.088;5.296;2023-05-11T00:31:36;101392.0;;;13.09;100.0
64023;BME280;50264;52.088;5.296;2023-05-11T00:34:48;101388.0;;;13.01;100.0
64023;BME280;50264;52.088;5.296;2023-05-11T00:36:25;101387.0;;;13.0;100.0
64023;BME280;50264;52.088;5.296;2023-05-11T00:38:01;101388.0;;;12.97;100.0
64023;BME280;50264;52.088;5.296;2023-05-11T00:41:13;101391.0;;;12.96;100.0
64023;BME280;50264;52.088;5.296;2023-05-11T00:42:49;101394.0;;;12.87;100.0
64023;BME280;50264;52.088;5.296;2023-05-11T00:44:25;101396.0;;;12.89;100.0
64023;BME280;50264;52.088;5.296;2023-05-11T00:47:39;101394.0;;;12.83;100.0
64023;BME280;50264;52.088;5.296;2023-05-11T00:49:16;101391.0;;;12.84;100.0
64023;BME280;50264;52.088;5.296;2023-05-11T00:50:52;101391.0;;;12.89;100.0
64023;BME280;50264;52.088;5.296;2023-05-11T00:54:06;101386.0;;;12.88;100.0
64023;BME280;50264;52.088;5.296;2023-05-11T00:55:43;101385.0;;;12.9;100.0
64023;BME280;50264;52.088;5.296;2023-05-11T00:57:20;101386.0;;;12.84;100.0
64023;BME280;50264;52.088;5.296;2023-05-11T00:58:56;101387.0;;;12.82;100.0
64023;BME280;50264;52.088;5.296;2023-05-11T01:02:08;101389.0;;;12.8;100.0
64023;BME280;50264;52.088;5.296;2023-05-11T01:03:45;101390.0;;;13.04;100.0
64023;BME280;50264;52.088;5.296;2023-05-11T01:05:23;101393.0;;;13.12;100.0
64023;BME280;50264;52.088;5.296;2023-05-11T01:08:47;101388.0;;;13.06;100.0
64023;BME280;50264;52.088;5.296;2023-05-11T01:10:30;101391.0;;;12.93;100.0
64023;BME280;50264;52.088;5.296;2023-05-11T01:12:14;101391.0;;;12.87;100.0
64023;BME280;50264;52.088;5.296;2023-05-11T01:14:04;101389.0;;;12.85;100.0
64023;BME280;50264;52.088;5.296;2023-05-11T01:15:52;101390.0;;;12.77;100.0
64023;BME280;50264;52.088;5.296;2023-05-11T01:19:42;101398.0;;;12.69;100.0
64023;BME280;50264;52.088;5.296;2023-05-11T01:21:20;101395.0;;;12.68;100.0
64023;BME280;50264;52.088;5.296;2023-05-11T01:23:15;101392.0;;;12.96;100.0
64023;BME280;50264;52.088;5.296;2023-05-11T01:25:30;101393.0;;;13.15;99.83
64023;BME280;50264;52.088;5.296;2023-05-11T01:28:24;101395.0;;;13.16;99.42
64023;BME280;50264;52.088;5.296;2023-05-11T01:30:42;101393.0;;;13.28;98.88
64023;BME280;50264;52.088;5.296;2023-05-11T01:32:24;101400.0;;;12.93;99.52
64023;BME280;50264;52.088;5.296;2023-05-11T01:35:47;101398.0;;;12.77;100.0
64023;BME280;50264;52.088;5.296;2023-05-11T01:37:26;101398.0;;;12.65;100.0
64023;BME280;50264;52.088;5.296;2023-05-11T01:39:08;101400.0;;;12.64;100.0
64023;BME280;50264;52.088;5.296;2023-05-11T01:40:50;101396.0;;;12.7;100.0
64023;BME280;50264;52.088;5.296;2023-05-11T01:44:24;101393.0;;;12.62;100.0
64023;BME280;50264;52.088;5.296;2023-05-11T01:46:05;101394.0;;;12.55;100.0
64023;BME280;50264;52.088;5.296;2023-05-11T01:47:48;101395.0;;;12.54;100.0
64023;BME280;50264;52.088;5.296;2023-05-11T01:49:25;101396.0;;;12.63;100.0
64023;BME280;50264;52.088;5.296;2023-05-11T01:52:41;101399.0;;;12.77;100.0
64023;BME280;50264;52.088;5.296;2023-05-11T01:54:19;101400.0;;;12.71;100.0
64023;BME280;50264;52.088;5.296;2023-05-11T01:55:57;101400.0;;;12.64;100.0
64023;BME280;50264;52.088;5.296;2023-05-11T01:57:35;101403.0;;;12.6;100.0
64023;BME280;50264;52.088;5.296;2023-05-11T02:00:51;101411.0;;;12.53;100.0
64023;BME280;50264;52.088;5.296;2023-05-11T02:02:29;101409.0;;;12.44;100.0
64023;BME280;50264;52.088;5.296;2023-05-11T02:04:08;101412.0;;;12.36;100.0
64023;BME280;50264;52.088;5.296;2023-05-11T02:05:46;101411.0;;;12.38;100.0
64023;BME280;50264;52.088;5.296;2023-05-11T02:09:01;101411.0;;;12.38;100.0
64023;BME280;50264;52.088;5.296;2023-05-11T02:10:37;101414.0;;;12.36;100.0
64023;BME280;50264;52.088;5.296;2023-05-11T02:12:18;101420.0;;;12.39;100.0
64023;BME280;50264;52.088;5.296;2023-05-11T02:15:36;101416.0;;;12.46;100.0
64023;BME280;50264;52.088;5.296;2023-05-11T02:17:15;101415.0;;;12.48;100.0
64023;BME280;50264;52.088;5.296;2023-05-11T02:18:54;101413.0;;;12.67;100.0
64023;BME280;50264;52.088;5.296;2023-05-11T02:20:32;101415.0;;;12.61;100.0
64023;BME280;50264;52.088;5.296;2023-05-11T02:23:48;101417.0;;;12.39;100.0
64023;BME280;50264;52.088;5.296;2023-05-11T02:25:27;101415.0;;;12.35;100.0
64023;BME280;50264;52.088;5.296;2023-05-11T02:27:04;101412.0;;;12.38;100.0
64023;BME280;50264;52.088;5.296;2023-05-11T02:30:16;101414.0;;;12.38;100.0
64023;BME280;50264;52.088;5.296;2023-05-11T02:31:56;101412.0;;;12.38;100.0
64023;BME280;50264;52.088;5.296;2023-05-11T02:33:38;101416.0;;;12.34;100.0
64023;BME280;50264;52.088;5.296;2023-05-11T02:35:22;101421.0;;;12.29;100.0
64023;BME280;50264;52.088;5.296;2023-05-11T02:38:43;101420.0;;;12.23;100.0
64023;BME280;50264;52.088;5.296;2023-05-11T02:40:27;101420.0;;;12.19;100.0
64023;BME280;50264;52.088;5.296;2023-05-11T02:42:10;101417.0;;;12.24;100.0
64023;BME280;50264;52.088;5.296;2023-05-11T02:43:54;101419.0;;;12.26;100.0
64023;BME280;50264;52.088;5.296;2023-05-11T02:45:34;101422.0;;;12.25;100.0
64023;BME280;50264;52.088;5.296;2023-05-11T02:48:55;101419.0;;;12.25;100.0
64023;BME280;50264;52.088;5.296;2023-05-11T02:50:35;101423.0;;;12.26;100.0
64023;BME280;50264;52.088;5.296;2023-05-11T02:52:14;101420.0;;;12.26;100.0
64023;BME280;50264;52.088;5.296;2023-05-11T02:53:53;101423.0;;;12.31;100.0
64023;BME280;50264;52.088;5.296;2023-05-11T02:57:09;101425.0;;;12.3;100.0
64023;BME280;50264;52.088;5.296;2023-05-11T02:58:46;101422.0;;;12.33;100.0
64023;BME280;50264;52.088;5.296;2023-05-11T03:00:23;101423.0;;;12.27;100.0
64023;BME280;50264;52.088;5.296;2023-05-11T03:03:35;101421.0;;;12.26;100.0
64023;BME280;50264;52.088;5.296;2023-05-11T03:05:11;101420.0;;;12.23;100.0
64023;BME280;50264;52.088;5.296;2023-05-11T03:06:47;101413.0;;;12.24;100.0
64023;BME280;50264;52.088;5.296;2023-05-11T03:10:00;101413.0;;;12.37;100.0
64023;BME280;50264;52.088;5.296;2023-05-11T03:11:37;101409.0;;;12.38;100.0
64023;BME280;50264;52.088;5.296;2023-05-11T03:13:13;101408.0;;;12.36;100.0
64023;BME280;50264;52.088;5.296;2023-05-11T03:14:50;101410.0;;;12.39;100.0
64023;BME280;50264;52.088;5.296;2023-05-11T03:18:05;101411.0;;;12.38;100.0
64023;BME280;50264;52.088;5.296;2023-05-11T03:19:41;101413.0;;;12.31;100.0
64023;BME280;50264;52.088;5.296;2023-05-11T03:21:18;101416.0;;;12.28;100.0
64023;BME280;50264;52.088;5.296;2023-05-11T03:24:31;101412.0;;;12.23;100.0
64023;BME280;50264;52.088;5.296;2023-05-11T03:26:10;101414.0;;;12.21;100.0
64023;BME280;50264;52.088;5.296;2023-05-11T03:27:46;101409.0;;;12.27;100.0
64023;BME280;50264;52.088;5.296;2023-05-11T03:29:26;101402.0;;;12.36;100.0
64023;BME280;50264;52.088;5.296;2023-05-11T03:32:41;101402.0;;;12.32;100.0
64023;BME280;50264;52.088;5.296;2023-05-11T03:34:17;101399.0;;;12.27;100.0
64023;BME280;50264;52.088;5.296;2023-05-11T03:35:54;101395.0;;;12.24;100.0
64023;BME280;50264;52.088;5.296;2023-05-11T03:39:10;101388.0;;;12.21;100.0
64023;BME280;50264;52.088;5.296;2023-05-11T03:40:51;101395.0;;;12.14;100.0
64023;BME280;50264;52.088;5.296;2023-05-11T03:42:29;101397.0;;;12.19;100.0
64023;BME280;50264;52.088;5.296;2023-05-11T03:44:10;101394.0;;;12.29;100.0
64023;BME280;50264;52.088;5.296;2023-05-11T03:47:28;101396.0;;;12.38;100.0
64023;BME280;50264;52.088;5.296;2023-05-11T03:49:06;101392.0;;;12.4;100.0
64023;BME280;50264;52.088;5.296;2023-05-11T03:50:43;101390.0;;;12.35;100.0
64023;BME280;50264;52.088;5.296;2023-05-11T03:53:56;101390.0;;;12.2;100.0
64023;BME280;50264;52.088;5.296;2023-05-11T03:55:33;101387.0;;;12.13;100.0
64023;BME280;50264;52.088;5.296;2023-05-11T03:57:09;101388.0;;;12.06;100.0
64023;BME280;50264;52.088;5.296;2023-05-11T03:58:45;101391.0;;;12.11;100.0
64023;BME280;50264;52.088;5.296;2023-05-11T04:01:57;101390.0;;;12.31;100.0
64023;BME280;50264;52.088;5.296;2023-05-11T04:03:34;101396.0;;;12.36;99.69
64023;BME280;50264;52.088;5.296;2023-05-11T04:05:10;101394.0;;;12.31;99.66
64023;BME280;50264;52.088;5.296;2023-05-11T04:08:23;101397.0;;;12.42;99.64
64023;BME280;50264;52.088;5.296;2023-05-11T04:09:59;101401.0;;;12.4;99.17
64023;BME280;50264;52.088;5.296;2023-05-11T04:11:36;101405.0;;;12.26;99.26
64023;BME280;50264;52.088;5.296;2023-05-11T04:14:47;101412.0;;;12.19;99.96
64023;BME280;50264;52.088;5.296;2023-05-11T04:16:24;101410.0;;;12.13;100.0
64023;BME280;50264;52.088;5.296;2023-05-11T04:18:00;101415.0;;;12.08;100.0
64023;BME280;50264;52.088;5.296;2023-05-11T04:19:36;101413.0;;;12.09;100.0
64023;BME280;50264;52.088;5.296;2023-05-11T04:22:48;101413.0;;;12.16;100.0
64023;BME280;50264;52.088;5.296;2023-05-11T04:24:24;101414.0;;;12.16;100.0
64023;BME280;50264;52.088;5.296;2023-05-11T04:26:01;101412.0;;;12.23;100.0
64023;BME280;50264;52.088;5.296;2023-05-11T04:29:13;101417.0;;;12.16;100.0
64023;BME280;50264;52.088;5.296;2023-05-11T04:30:51;101418.0;;;12.15;100.0
64023;BME280;50264;52.088;5.296;2023-05-11T04:35:41;101417.0;;;12.25;100.0
64023;BME280;50264;52.088;5.296;2023-05-11T04:37:18;101412.0;;;12.3;100.0
64023;BME280;50264;52.088;5.296;2023-05-11T04:38:54;101417.0;;;12.4;100.0
64023;BME280;50264;52.088;5.296;2023-05-11T04:42:06;101418.0;;;12.38;100.0
64023;BME280;50264;52.088;5.296;2023-05-11T04:43:42;101421.0;;;12.32;100.0
64023;BME280;50264;52.088;5.296;2023-05-11T04:45:18;101422.0;;;12.4;100.0
64023;BME280;50264;52.088;5.296;2023-05-11T04:46:55;101423.0;;;12.57;100.0
64023;BME280;50264;52.088;5.296;2023-05-11T04:50:08;101428.0;;;12.5;100.0
64023;BME280;50264;52.088;5.296;2023-05-11T04:51:45;101426.0;;;12.56;100.0
64023;BME280;50264;52.088;5.296;2023-05-11T04:53:21;101430.0;;;12.72;100.0
64023;BME280;50264;52.088;5.296;2023-05-11T04:56:34;101426.0;;;12.6;100.0
64023;BME280;50264;52.088;5.296;2023-05-11T04:58:11;101427.0;;;12.7;100.0
64023;BME280;50264;52.088;5.296;2023-05-11T05:02:59;101432.0;;;12.71;100.0
64023;BME280;50264;52.088;5.296;2023-05-11T05:04:35;101431.0;;;12.67;100.0
64023;BME280;50264;52.088;5.296;2023-05-11T05:06:11;101435.0;;;12.63;100.0
64023;BME280;50264;52.088;5.296;2023-05-11T05:07:47;101434.0;;;12.61;100.0
64023;BME280;50264;52.088;5.296;2023-05-11T05:11:00;101439.0;;;12.67;100.0
64023;BME280;50264;52.088;5.296;2023-05-11T05:12:36;101441.0;;;12.82;100.0
64023;BME280;50264;52.088;5.296;2023-05-11T05:14:12;101435.0;;;12.87;100.0
64023;BME280;50264;52.088;5.296;2023-05-11T05:17:24;101436.0;;;12.82;100.0
64023;BME280;50264;52.088;5.296;2023-05-11T05:19:01;101436.0;;;12.87;100.0
64023;BME280;50264;52.088;5.296;2023-05-11T05:20:37;101440.0;;;12.85;100.0
64023;BME280;50264;52.088;5.296;2023-05-11T05:23:49;101442.0;;;12.95;100.0
64023;BME280;50264;52.088;5.296;2023-05-11T05:25:25;101443.0;;;12.97;100.0
64023;BME280;50264;52.088;5.296;2023-05-11T05:27:01;101448.0;;;12.97;100.0
64023;BME280;50264;52.088;5.296;2023-05-11T05:30:14;101445.0;;;12.96;100.0
64023;BME280;50264;52.088;5.296;2023-05-11T05:31:50;101442.0;;;13.09;100.0
64023;BME280;50264;52.088;5.296;2023-05-11T05:33:26;101443.0;;;13.14;100.0
64023;BME280;50264;52.088;5.296;2023-05-11T05:35:02;101445.0;;;13.14;100.0
64023;BME280;50264;52.088;5.296;2023-05-11T05:38:15;101449.0;;;13.19;100.0
64023;BME280;50264;52.088;5.296;2023-05-11T05:39:51;101447.0;;;13.17;100.0
64023;BME280;50264;52.088;5.296;2023-05-11T05:41:28;101451.0;;;13.15;100.0
64023;BME280;50264;52.088;5.296;2023-05-11T05:44:40;101447.0;;;13.15;100.0
64023;BME280;50264;52.088;5.296;2023-05-11T05:46:16;101453.0;;;13.13;100.0
64023;BME280;50264;52.088;5.296;2023-05-11T05:47:52;101455.0;;;13.08;100.0
64023;BME280;50264;52.088;5.296;2023-05-11T05:51:04;101456.0;;;13.23;100.0
64023;BME280;50264;52.088;5.296;2023-05-11T05:52:41;101458.0;;;13.23;100.0
64023;BME280;50264;52.088;5.296;2023-05-11T05:54:17;101461.0;;;13.25;100.0
64023;BME280;50264;52.088;5.296;2023-05-11T05:55:53;101463.0;;;13.34;100.0
64023;BME280;50264;52.088;5.296;2023-05-11T05:59:05;101466.0;;;13.33;100.0
64023;BME280;50264;52.088;5.296;2023-05-11T06:00:41;101469.0;;;13.38;100.0
64023;BME280;50264;52.088;5.296;2023-05-11T06:02:17;101472.0;;;13.46;100.0
64023;BME280;50264;52.088;5.296;2023-05-11T06:05:30;101472.0;;;13.48;100.0
64023;BME280;50264;52.088;5.296;2023-05-11T06:07:06;101473.0;;;13.53;100.0
64023;BME280;50264;52.088;5.296;2023-05-11T06:08:42;101473.0;;;13.52;100.0
64023;BME280;50264;52.088;5.296;2023-05-11T06:11:54;101478.0;;;13.63;100.0
64023;BME280;50264;52.088;5.296;2023-05-11T06:13:31;101480.0;;;13.8;100.0
64023;BME280;50264;52.088;5.296;2023-05-11T06:15:07;101478.0;;;13.78;100.0
64023;BME280;50264;52.088;5.296;2023-05-11T06:18:20;101480.0;;;13.77;100.0
64023;BME280;50264;52.088;5.296;2023-05-11T06:19:56;101480.0;;;13.8;100.0
64023;BME280;50264;52.088;5.296;2023-05-11T06:21:32;101480.0;;;13.86;100.0
64023;BME280;50264;52.088;5.296;2023-05-11T06:23:08;101485.0;;;13.87;100.0
64023;BME280;50264;52.088;5.296;2023-05-11T06:26:22;101485.0;;;13.91;100.0
64023;BME280;50264;52.088;5.296;2023-05-11T06:27:58;101485.0;;;13.87;100.0
64023;BME280;50264;52.088;5.296;2023-05-11T06:29:34;101486.0;;;13.82;100.0
64023;BME280;50264;52.088;5.296;2023-05-11T06:32:46;101487.0;;;13.92;100.0
64023;BME280;50264;52.088;5.296;2023-05-11T06:34:23;101486.0;;;13.98;100.0
64023;BME280;50264;52.088;5.296;2023-05-11T06:36:02;101488.0;;;14.04;100.0
64023;BME280;50264;52.088;5.296;2023-05-11T06:39:15;101491.0;;;14.05;100.0
64023;BME280;50264;52.088;5.296;2023-05-11T06:40:51;101491.0;;;14.0;100.0
64023;BME280;50264;52.088;5.296;2023-05-11T06:42:27;101492.0;;;14.1;100.0
64023;BME280;50264;52.088;5.296;2023-05-11T06:44:04;101489.0;;;14.04;100.0
64023;BME280;50264;52.088;5.296;2023-05-11T06:47:18;101489.0;;;14.19;100.0
64023;BME280;50264;52.088;5.296;2023-05-11T06:48:54;101496.0;;;14.25;98.67
64023;BME280;50264;52.088;5.296;2023-05-11T06:50:30;101502.0;;;14.37;97.55
64023;BME280;50264;52.088;5.296;2023-05-11T06:53:43;101499.0;;;14.48;98.45
64023;BME280;50264;52.088;5.296;2023-05-11T06:55:20;101498.0;;;14.49;98.15
64023;BME280;50264;52.088;5.296;2023-05-11T06:56:56;101498.0;;;14.6;97.25
64023;BME280;50264;52.088;5.296;2023-05-11T07:01:45;101505.0;;;14.74;96.51
64023;BME280;50264;52.088;5.296;2023-05-11T07:03:21;101501.0;;;14.82;97.33
64023;BME280;50264;52.088;5.296;2023-05-11T07:04:58;101505.0;;;14.79;97.1
64023;BME280;50264;52.088;5.296;2023-05-11T07:08:10;101503.0;;;14.77;95.88
64023;BME280;50264;52.088;5.296;2023-05-11T07:09:46;101505.0;;;14.76;94.82
64023;BME280;50264;52.088;5.296;2023-05-11T07:11:23;101505.0;;;14.77;96.02
64023;BME280;50264;52.088;5.296;2023-05-11T07:14:35;101501.0;;;14.96;96.53
64023;BME280;50264;52.088;5.296;2023-05-11T07:16:11;101500.0;;;15.04;97.12
64023;BME280;50264;52.088;5.296;2023-05-11T07:17:48;101497.0;;;15.07;96.35
64023;BME280;50264;52.088;5.296;2023-05-11T07:21:00;101496.0;;;15.09;94.49
64023;BME280;50264;52.088;5.296;2023-05-11T07:22:36;101499.0;;;15.08;92.72
64023;BME280;50264;52.088;5.296;2023-05-11T07:24:12;101502.0;;;15.13;93.37
64023;BME280;50264;52.088;5.296;2023-05-11T07:25:48;101503.0;;;15.2;91.67
64023;BME280;50264;52.088;5.296;2023-05-11T07:29:01;101503.0;;;15.27;93.96
64023;BME280;50264;52.088;5.296;2023-05-11T07:30:38;101505.0;;;15.36;93.17
64023;BME280;50264;52.088;5.296;2023-05-11T07:32:14;101505.0;;;15.4;88.39
64023;BME280;50264;52.088;5.296;2023-05-11T07:35:26;101509.0;;;15.47;88.85
64023;BME280;50264;52.088;5.296;2023-05-11T07:37:02;101508.0;;;15.45;88.7
64023;BME280;50264;52.088;5.296;2023-05-11T07:41:51;101506.0;;;15.53;89.19
64023;BME280;50264;52.088;5.296;2023-05-11T07:43:27;101505.0;;;15.41;87.01
64023;BME280;50264;52.088;5.296;2023-05-11T07:45:03;101506.0;;;15.6;89.4
64023;BME280;50264;52.088;5.296;2023-05-11T07:48:16;101505.0;;;15.54;87.21
64023;BME280;50264;52.088;5.296;2023-05-11T07:49:52;101503.0;;;15.63;86.07
64023;BME280;50264;52.088;5.296;2023-05-11T07:51:28;101505.0;;;15.75;85.3
64023;BME280;50264;52.088;5.296;2023-05-11T07:53:05;101507.0;;;15.79;84.83
64023;BME280;50264;52.088;5.296;2023-05-11T07:56:17;101505.0;;;15.8;86.5
64023;BME280;50264;52.088;5.296;2023-05-11T07:57:53;101501.0;;;16.03;86.23
64023;BME280;50264;52.088;5.296;2023-05-11T07:59:29;101502.0;;;16.0;82.94
64023;BME280;50264;52.088;5.296;2023-05-11T08:02:41;101500.0;;;16.04;84.34
64023;BME280;50264;52.088;5.296;2023-05-11T08:04:17;101503.0;;;16.27;87.08
64023;BME280;50264;52.088;5.296;2023-05-11T08:05:54;101502.0;;;16.43;83.67
64023;BME280;50264;52.088;5.296;2023-05-11T08:09:06;101498.0;;;16.47;83.9
64023;BME280;50264;52.088;5.296;2023-05-11T08:10:42;101500.0;;;16.53;83.7
64023;BME280;50264;52.088;5.296;2023-05-11T08:12:18;101506.0;;;16.41;81.31
64023;BME280;50264;52.088;5.296;2023-05-11T08:17:06;101507.0;;;16.54;83.41
64023;BME280;50264;52.088;5.296;2023-05-11T08:18:43;101509.0;;;16.59;82.49
64023;BME280;50264;52.088;5.296;2023-05-11T08:20:19;101508.0;;;16.62;79.94
64023;BME280;50264;52.088;5.296;2023-05-11T08:23:31;101513.0;;;16.66;82.89
64023;BME280;50264;52.088;5.296;2023-05-11T08:25:08;101506.0;;;16.68;86.69
64023;BME280;50264;52.088;5.296;2023-05-11T08:26:43;101512.0;;;16.75;82.61
64023;BME280;50264;52.088;5.296;2023-05-11T08:29:57;101513.0;;;16.79;81.33
64023;BME280;50264;52.088;5.296;2023-05-11T08:31:33;101505.0;;;16.86;84.19
64023;BME280;50264;52.088;5.296;2023-05-11T08:33:09;101511.0;;;16.78;80.69
64023;BME280;50264;52.088;5.296;2023-05-11T08:36:21;101514.0;;;16.68;79.94
64023;BME280;50264;52.088;5.296;2023-05-11T08:37:57;101513.0;;;16.65;80.66
64023;BME280;50264;52.088;5.296;2023-05-11T08:39:33;101509.0;;;16.7;80.47
64023;BME280;50264;52.088;5.296;2023-05-11T08:41:10;101509.0;;;16.65;80.62
64023;BME280;50264;52.088;5.296;2023-05-11T08:44:31;101509.0;;;16.73;80.31
64023;BME280;50264;52.088;5.296;2023-05-11T08:46:10;101505.0;;;16.8;83.53
64023;BME280;50264;52.088;5.296;2023-05-11T08:47:47;101505.0;;;16.84;81.72
64023;BME280;50264;52.088;5.296;2023-05-11T08:51:01;101505.0;;;16.81;80.78
64023;BME280;50264;52.088;5.296;2023-05-11T08:52:39;101501.0;;;16.78;81.19
64023;BME280;50264;52.088;5.296;2023-05-11T08:54:16;101506.0;;;17.0;81.62
64023;BME280;50264;52.088;5.296;2023-05-11T08:55:53;101505.0;;;17.13;80.59
64023;BME280;50264;52.088;5.296;2023-05-11T08:59:08;101513.0;;;17.14;77.33
64023;BME280;50264;52.088;5.296;2023-05-11T09:00:48;101510.0;;;16.97;77.55
64023;BME280;50264;52.088;5.296;2023-05-11T09:02:25;101510.0;;;17.14;80.22
64023;BME280;50264;52.088;5.296;2023-05-11T09:05:38;101509.0;;;17.12;76.99
64023;BME280;50264;52.088;5.296;2023-05-11T09:07:15;101507.0;;;17.18;78.02
64023;BME280;50264;52.088;5.296;2023-05-11T09:08:52;101500.0;;;17.34;80.27
64023;BME280;50264;52.088;5.296;2023-05-11T09:10:29;101507.0;;;17.32;80.7
64023;BME280;50264;52.088;5.296;2023-05-11T09:13:42;101503.0;;;17.2;80.72
64023;BME280;50264;52.088;5.296;2023-05-11T09:15:18;101506.0;;;17.2;78.61
64023;BME280;50264;52.088;5.296;2023-05-11T09:16:54;101505.0;;;17.22;78.33
64023;BME280;50264;52.088;5.296;2023-05-11T09:20:09;101508.0;;;17.25;77.14
64023;BME280;50264;52.088;5.296;2023-05-11T09:21:45;101509.0;;;17.21;78.61
64023;BME280;50264;52.088;5.296;2023-05-11T09:23:24;101510.0;;;17.13;77.05
64023;BME280;50264;52.088;5.296;2023-05-11T09:26:39;101514.0;;;17.05;77.55
64023;BME280;50264;52.088;5.296;2023-05-11T09:28:14;101508.0;;;17.21;80.14
64023;BME280;50264;52.088;5.296;2023-05-11T09:29:55;101511.0;;;17.05;75.02
64023;BME280;50264;52.088;5.296;2023-05-11T09:31:40;101511.0;;;17.02;73.16
64023;BME280;50264;52.088;5.296;2023-05-11T09:34:59;101511.0;;;17.11;75.58
64023;BME280;50264;52.088;5.296;2023-05-11T09:36:54;101512.0;;;17.04;76.62
64023;BME280;50264;52.088;5.296;2023-05-11T09:38:30;101506.0;;;17.09;80.88
64023;BME280;50264;52.088;5.296;2023-05-11T09:43:23;101506.0;;;17.09;83.45
64023;BME280;50264;52.088;5.296;2023-05-11T09:45:01;101509.0;;;17.03;82.78
64023;BME280;50264;52.088;5.296;2023-05-11T09:46:38;101515.0;;;17.02;79.22
64023;BME280;50264;52.088;5.296;2023-05-11T09:48:24;101512.0;;;17.09;78.45
64023;BME280;50264;52.088;5.296;2023-05-11T09:51:59;101513.0;;;16.95;80.47
64023;BME280;50264;52.088;5.296;2023-05-11T09:53:38;101512.0;;;16.9;80.39
64023;BME280;50264;52.088;5.296;2023-05-11T09:55:15;101515.0;;;16.87;82.51
64023;BME280;50264;52.088;5.296;2023-05-11T09:56:53;101513.0;;;16.91;84.63
64023;BME280;50264;52.088;5.296;2023-05-11T09:58:43;101511.0;;;16.84;82.98
64023;BME280;50264;52.088;5.296;2023-05-11T10:02:15;101510.0;;;16.87;84.09
64023;BME280;50264;52.088;5.296;2023-05-11T10:03:54;101514.0;;;16.84;83.67
64023;BME280;50264;52.088;5.296;2023-05-11T10:05:31;101516.0;;;16.72;83.75
64023;BME280;50264;52.088;5.296;2023-05-11T10:07:22;101511.0;;;16.65;84.74
64023;BME280;50264;52.088;5.296;2023-05-11T10:09:07;101515.0;;;16.68;78.44
64023;BME280;50264;52.088;5.296;2023-05-11T10:12:22;101511.0;;;16.77;83.38
64023;BME280;50264;52.088;5.296;2023-05-11T10:13:59;101514.0;;;16.73;77.28
64023;BME280;50264;52.088;5.296;2023-05-11T10:15:35;101507.0;;;16.79;83.99
64023;BME280;50264;52.088;5.296;2023-05-11T10:18:50;101511.0;;;16.81;84.01
64023;BME280;50264;52.088;5.296;2023-05-11T10:20:26;101508.0;;;16.84;85.7
64023;BME280;50264;52.088;5.296;2023-05-11T10:22:04;101506.0;;;16.88;84.04
64023;BME280;50264;52.088;5.296;2023-05-11T10:23:41;101509.0;;;16.86;80.58
64023;BME280;50264;52.088;5.296;2023-05-11T10:26:57;101507.0;;;16.95;83.48
64023;BME280;50264;52.088;5.296;2023-05-11T10:28:34;101505.0;;;16.9;77.16
64023;BME280;50264;52.088;5.296;2023-05-11T10:30:11;101508.0;;;17.05;80.89
64023;BME280;50264;52.088;5.296;2023-05-11T10:33:24;101505.0;;;17.34;80.56
64023;BME280;50264;52.088;5.296;2023-05-11T10:35:02;101500.0;;;17.46;78.41
64023;BME280;50264;52.088;5.296;2023-05-11T10:36:39;101505.0;;;17.66;74.64
64023;BME280;50264;52.088;5.296;2023-05-11T10:38:15;101501.0;;;17.78;75.91
64023;BME280;50264;52.088;5.296;2023-05-11T10:41:39;101501.0;;;18.09;75.37
64023;BME280;50264;52.088;5.296;2023-05-11T10:43:52;101498.0;;;18.36;74.66
64023;BME280;50264;52.088;5.296;2023-05-11T10:45:47;101494.0;;;18.61;75.72
64023;BME280;50264;52.088;5.296;2023-05-11T10:47:57;101493.0;;;18.75;71.0
64023;BME280;50264;52.088;5.296;2023-05-11T10:50:32;101495.0;;;18.77;70.2
64023;BME280;50264;52.088;5.296;2023-05-11T10:52:24;101499.0;;;19.06;71.39
64023;BME280;50264;52.088;5.296;2023-05-11T10:54:28;101489.0;;;19.25;70.52
64023;BME280;50264;52.088;5.296;2023-05-11T10:56:21;101491.0;;;19.36;69.91
64023;BME280;50264;52.088;5.296;2023-05-11T10:58:15;101495.0;;;19.48;65.06
64023;BME280;50264;52.088;5.296;2023-05-11T11:00:12;101499.0;;;19.54;68.95
64023;BME280;50264;52.088;5.296;2023-05-11T11:03:56;101501.0;;;19.36;65.02
64023;BME280;50264;52.088;5.296;2023-05-11T11:05:33;101509.0;;;19.14;63.03
64023;BME280;50264;52.088;5.296;2023-05-11T11:08:55;101517.0;;;19.18;71.8
64023;BME280;50264;52.088;5.296;2023-05-11T11:10:33;101512.0;;;19.09;75.19
64023;BME280;50264;52.088;5.296;2023-05-11T11:12:10;101525.0;;;18.79;73.66
64023;BME280;50264;52.088;5.296;2023-05-11T11:16:11;101524.0;;;18.56;71.8
64023;BME280;50264;52.088;5.296;2023-05-11T11:18:18;101520.0;;;18.41;72.08
64023;BME280;50264;52.088;5.296;2023-05-11T11:19:54;101520.0;;;17.88;74.27
64023;BME280;50264;52.088;5.296;2023-05-11T11:21:38;101518.0;;;17.43;76.66
64023;BME280;50264;52.088;5.296;2023-05-11T11:23:40;101520.0;;;17.32;78.49